Time;durP1;ratioP1;P1;durP2;ratioP2;P2;SDS_P1;SDS_P2;PMS_P1;PMS_P2;Temp;Humidity;BMP_temperature;BMP_pressure;BME280_temperature;BME280_humidity;BME280_pressure;Samples;Min_cycle;Max_cycle;Signal;HPM_P1;HPM_P2
2022/08/02 00:00:13;;;;;;;3.13;2.93;;;;;;;19.19;90.51;100288.34;4949665;28;20515;-71
2022/08/02 00:02:39;;;;;;;3.33;3.00;;;;;;;19.14;90.16;100292.31;4979265;28;20188;-74
2022/08/02 00:05:04;;;;;;;3.00;2.80;;;;;;;19.10;90.48;100288.31;4962584;28;20188;-74
2022/08/02 00:07:30;;;;;;;3.40;3.00;;;;;;;19.03;90.43;100294.06;4975162;28;20215;-72
2022/08/02 00:09:55;;;;;;;5.20;2.90;;;;;;;18.98;91.09;100290.22;4970676;28;20201;-72
2022/08/02 00:12:21;;;;;;;3.83;2.87;;;;;;;18.92;91.56;100286.34;4969946;28;20294;-72
2022/08/02 00:14:46;;;;;;;3.40;3.07;;;;;;;18.90;91.88;100290.03;4975131;28;20194;-72
2022/08/02 00:17:12;;;;;;;3.67;3.07;;;;;;;18.83;92.31;100295.78;4974923;28;20298;-72
2022/08/02 00:19:37;;;;;;;3.13;2.87;;;;;;;18.73;92.79;100292.31;4975121;28;20199;-72
2022/08/02 00:22:02;;;;;;;4.50;3.00;;;;;;;18.71;93.73;100299.44;4963678;28;20612;-72
2022/08/02 00:24:28;;;;;;;3.30;3.00;;;;;;;18.61;94.78;100301.19;4981450;28;20212;-72
2022/08/02 00:26:53;;;;;;;3.87;3.10;;;;;;;18.55;95.06;100299.91;4973692;28;20239;-73
2022/08/02 00:29:18;;;;;;;3.40;3.07;;;;;;;18.45;95.41;100289.44;4974406;28;20215;-72
2022/08/02 00:31:44;;;;;;;3.53;3.23;;;;;;;18.43;96.05;100288.78;4977928;28;20231;-72
2022/08/02 00:34:09;;;;;;;4.00;2.90;;;;;;;18.47;95.52;100294.53;4970179;28;20173;-72
2022/08/02 00:36:34;;;;;;;4.40;3.50;;;;;;;18.44;95.96;100293.00;4968660;28;20263;-72
2022/08/02 00:39:00;;;;;;;3.70;3.40;;;;;;;18.48;96.42;100302.22;4987331;28;20187;-72
2022/08/02 00:41:25;;;;;;;5.17;3.43;;;;;;;18.48;96.55;100306.59;4977489;28;20315;-73
2022/08/02 00:43:51;;;;;;;4.47;3.30;;;;;;;18.47;96.61;100294.53;4975360;28;20543;-73
2022/08/02 00:46:18;;;;;;;3.47;3.03;;;;;;;18.52;96.10;100303.59;4974626;28;20251;-72
2022/08/02 00:48:44;;;;;;;3.93;3.23;;;;;;;18.50;96.66;100302.09;4973384;28;20762;-72
2022/08/02 00:51:10;;;;;;;4.87;3.40;;;;;;;18.38;97.41;100306.53;4966627;28;20318;-73
2022/08/02 00:53:35;;;;;;;5.63;3.33;;;;;;;18.36;98.18;100301.47;4981059;28;20268;-72
2022/08/02 00:56:01;;;;;;;3.53;3.07;;;;;;;18.29;98.62;100300.34;4974631;28;20211;-72
2022/08/02 00:58:27;;;;;;;6.33;3.47;;;;;;;18.27;98.61;100301.41;4968603;28;20713;-72
2022/08/02 01:00:52;;;;;;;5.07;3.97;;;;;;;18.23;99.44;100300.84;4974479;28;20231;-72
2022/08/02 01:03:17;;;;;;;4.33;3.70;;;;;;;18.23;99.85;100300.84;4983578;28;20219;-73
2022/08/02 01:05:43;;;;;;;3.87;3.57;;;;;;;18.22;99.53;100296.59;4973308;28;20188;-73
2022/08/02 01:08:09;;;;;;;3.60;3.27;;;;;;;18.15;100.00;100295.47;4973922;28;20224;-72
2022/08/02 01:10:34;;;;;;;5.53;3.13;;;;;;;18.13;100.00;100292.97;4968231;28;20227;-72
2022/08/02 01:13:00;;;;;;;4.43;3.13;;;;;;;18.10;100.00;100290.66;4985290;28;20180;-72
2022/08/02 01:15:27;;;;;;;3.73;3.43;;;;;;;18.11;100.00;100291.47;4974210;28;20180;-72
2022/08/02 01:17:55;;;;;;;3.93;3.13;;;;;;;18.10;100.00;100289.81;4972697;28;20306;-72
2022/08/02 01:20:39;;;;;;;3.53;3.30;;;;;;;17.93;100.00;100293.78;4965696;28;20188;-72
2022/08/02 01:23:25;;;;;;;3.90;3.47;;;;;;;17.94;100.00;100285.88;4984631;28;20175;-73
2022/08/02 01:26:33;;;;;;;4.37;3.20;;;;;;;17.85;100.00;100286.59;4975882;28;20547;-72
2022/08/02 01:29:17;;;;;;;3.57;3.13;;;;;;;17.82;100.00;100285.06;4972993;28;20255;-72
2022/08/02 01:31:52;;;;;;;3.93;3.30;;;;;;;17.83;100.00;100289.34;4976426;28;20234;-72
2022/08/02 01:37:53;;;;;;;3.93;3.53;;;;;;;17.64;100.00;100284.81;4977753;28;20186;-72
2022/08/02 01:40:29;;;;;;;6.40;3.37;;;;;;;17.58;100.00;100291.34;4971483;28;20212;-72
2022/08/02 01:42:56;;;;;;;4.57;3.70;;;;;;;17.63;100.00;100293.56;4974229;28;20646;-72
2022/08/02 01:45:24;;;;;;;5.17;3.57;;;;;;;17.62;100.00;100291.91;4984708;28;20257;-72
2022/08/02 01:47:51;;;;;;;4.03;3.70;;;;;;;17.62;100.00;100296.31;4973037;28;20286;-71
2022/08/02 01:50:22;;;;;;;4.13;3.50;;;;;;;17.66;100.00;100295.94;4964922;28;20658;-72
2022/08/02 01:52:53;;;;;;;4.70;3.90;;;;;;;17.70;100.00;100299.94;4972222;28;20235;-72
2022/08/02 01:55:25;;;;;;;4.23;3.30;;;;;;;17.66;100.00;100292.50;4972382;28;20247;-71
2022/08/02 01:58:00;;;;;;;5.87;3.67;;;;;;;17.61;100.00;100286.84;4972744;28;20307;-71
2022/08/02 02:00:30;;;;;;;4.70;3.70;;;;;;;17.67;100.00;100291.56;4966378;28;20273;-71
2022/08/02 02:02:57;;;;;;;3.70;3.40;;;;;;;17.64;100.00;100291.78;4972349;28;20183;-72
2022/08/02 02:05:26;;;;;;;5.40;4.00;;;;;;;17.59;100.00;100287.78;4973570;28;20188;-72
2022/08/02 02:07:55;;;;;;;3.90;3.50;;;;;;;17.54;100.00;100289.13;4987995;28;20576;-72
2022/08/02 02:10:28;;;;;;;5.80;4.07;;;;;;;17.50;100.00;100293.75;4965871;28;20188;-72
2022/08/02 02:12:56;;;;;;;4.00;3.27;;;;;;;17.50;100.00;100296.34;4971953;28;20188;-71
2022/08/02 02:15:23;;;;;;;4.33;3.47;;;;;;;17.52;100.00;100299.63;4988161;28;20673;-71
2022/08/02 02:17:51;;;;;;;3.70;3.40;;;;;;;17.49;100.00;100291.25;4973118;28;20311;-70
2022/08/02 02:20:18;;;;;;;3.60;3.30;;;;;;;17.47;100.00;100291.38;4965116;28;20562;-71
2022/08/02 02:22:44;;;;;;;4.77;3.80;;;;;;;17.46;100.00;100299.31;4986184;28;20291;-71
2022/08/02 02:25:11;;;;;;;4.00;3.60;;;;;;;17.48;100.00;100287.84;4973043;28;20202;-71
2022/08/02 02:27:42;;;;;;;4.27;3.13;;;;;;;17.43;100.00;100295.19;4973407;28;20208;-71
2022/08/02 02:30:07;;;;;;;4.00;3.60;;;;;;;17.47;100.00;100291.38;4977824;28;20267;-69
2022/08/02 02:32:34;;;;;;;5.07;3.43;;;;;;;17.55;100.00;100290.75;4971734;28;20278;-71
2022/08/02 02:35:02;;;;;;;4.47;3.57;;;;;;;17.50;100.00;100283.34;4971733;28;20176;-70
2022/08/02 02:37:30;;;;;;;3.73;3.40;;;;;;;17.43;100.00;100290.81;4972748;28;20180;-70
2022/08/02 02:39:57;;;;;;;4.03;3.67;;;;;;;17.46;100.00;100292.34;4965353;28;20184;-72
2022/08/02 02:42:26;;;;;;;3.57;3.27;;;;;;;17.43;100.00;100292.59;4955534;28;20290;-70
2022/08/02 02:44:53;;;;;;;4.03;3.50;;;;;;;17.39;100.00;100288.56;4972629;28;20180;-71
2022/08/02 02:47:21;;;;;;;3.67;3.37;;;;;;;17.36;100.00;100287.03;4971446;28;20713;-72
2022/08/02 02:49:48;;;;;;;3.67;3.43;;;;;;;17.36;100.00;100288.81;4986910;28;20199;-71
2022/08/02 02:52:15;;;;;;;4.07;3.30;;;;;;;17.36;100.00;100289.63;4974389;28;20642;-71
2022/08/02 02:54:42;;;;;;;3.77;3.43;;;;;;;17.28;100.00;100292.06;4963197;28;20239;-71
2022/08/02 02:57:09;;;;;;;3.70;3.40;;;;;;;17.30;100.00;100292.72;4972945;28;20250;-72
2022/08/02 02:59:35;;;;;;;3.53;3.23;;;;;;;17.30;100.00;100297.94;4973066;28;20188;-70
2022/08/02 03:02:02;;;;;;;5.30;3.10;;;;;;;17.28;100.00;100297.25;4971907;28;20631;-71
2022/08/02 03:04:28;;;;;;;3.80;3.50;;;;;;;17.26;100.00;100296.53;4973409;28;20192;-71
2022/08/02 03:06:53;;;;;;;4.73;3.80;;;;;;;17.24;100.00;100293.22;4972852;28;20447;-71
2022/08/02 03:09:19;;;;;;;4.03;3.63;;;;;;;17.27;100.00;100296.41;4973572;28;20286;-71
2022/08/02 03:11:45;;;;;;;3.93;3.57;;;;;;;17.20;100.00;100292.63;4979255;28;20224;-71
2022/08/02 03:14:12;;;;;;;5.93;3.23;;;;;;;17.14;100.00;100289.72;4975010;28;20534;-71
2022/08/02 03:16:47;;;;;;;3.57;3.37;;;;;;;16.99;100.00;100276.16;4964582;28;20334;-71
2022/08/02 03:19:13;;;;;;;3.63;3.30;;;;;;;16.97;100.00;100273.69;4962678;28;20191;-72
2022/08/02 03:21:40;;;;;;;3.50;3.20;;;;;;;17.05;100.00;100278.28;4978614;28;20698;-72
2022/08/02 03:24:06;;;;;;;3.33;3.03;;;;;;;17.08;100.00;100273.66;4979600;28;20187;-71
2022/08/02 03:26:31;;;;;;;3.97;3.67;;;;;;;17.15;100.00;100278.38;4975078;28;20177;-70
2022/08/02 03:28:57;;;;;;;3.57;3.27;;;;;;;17.12;100.00;100273.41;4991016;28;20317;-70
2022/08/02 03:31:22;;;;;;;4.23;3.83;;;;;;;17.18;100.00;100278.13;4965453;28;20223;-69
2022/08/02 03:33:48;;;;;;;3.47;3.17;;;;;;;17.17;100.00;100279.09;4989882;28;20274;-71
2022/08/02 03:36:16;;;;;;;3.73;3.37;;;;;;;17.14;100.00;100280.16;4975721;28;20243;-71
2022/08/02 03:38:43;;;;;;;4.43;3.53;;;;;;;17.02;100.00;100276.75;4991001;28;20188;-71
2022/08/02 03:41:11;;;;;;;3.90;3.60;;;;;;;17.04;100.00;100274.84;4970399;28;20274;-71
2022/08/02 03:43:38;;;;;;;3.83;3.40;;;;;;;17.02;100.00;100281.94;4982531;28;20184;-71
2022/08/02 03:46:06;;;;;;;3.90;3.60;;;;;;;17.09;100.00;100283.13;4974169;28;20195;-71
2022/08/02 03:48:32;;;;;;;3.70;3.40;;;;;;;17.00;100.00;100283.81;4975645;28;20191;-71
2022/08/02 03:50:58;;;;;;;3.73;3.30;;;;;;;16.83;100.00;100292.09;4960486;28;20905;-71
2022/08/02 03:53:24;;;;;;;4.37;3.60;;;;;;;16.72;100.00;100278.16;4971272;28;20226;-71
2022/08/02 03:55:50;;;;;;;3.90;3.60;;;;;;;16.78;100.00;100279.44;4975613;28;20179;-71
2022/08/02 03:58:18;;;;;;;3.40;3.20;;;;;;;16.86;100.00;100268.47;4989958;28;20203;-71
2022/08/02 04:00:44;;;;;;;3.63;3.33;;;;;;;16.88;100.00;100279.56;4970866;28;20239;-70
2022/08/02 04:03:09;;;;;;;4.77;3.30;;;;;;;16.84;100.00;100273.78;4971871;28;20640;-70
2022/08/02 04:05:34;;;;;;;3.97;3.67;;;;;;;16.86;100.00;100278.88;4974319;28;20609;-70
2022/08/02 04:08:00;;;;;;;3.70;3.17;;;;;;;16.84;100.00;100276.38;4975114;28;20291;-71
2022/08/02 04:10:25;;;;;;;4.17;3.77;;;;;;;16.82;100.00;100282.63;4966382;28;20225;-70
2022/08/02 04:12:51;;;;;;;3.80;3.40;;;;;;;16.85;100.00;100285.00;4987828;28;20184;-71
2022/08/02 04:15:17;;;;;;;4.90;4.40;;;;;;;16.90;100.00;100283.69;4973594;28;20195;-71
2022/08/02 04:17:49;;;;;;;4.90;4.40;;;;;;;16.83;100.00;100279.94;4990106;28;20228;-71
2022/08/02 04:20:20;;;;;;;4.07;3.50;;;;;;;16.75;100.00;100280.50;4966612;28;20214;-71
2022/08/02 04:22:59;;;;;;;3.83;3.53;;;;;;;16.68;100.00;100278.53;4973208;28;20218;-71
2022/08/02 04:25:26;;;;;;;4.17;3.80;;;;;;;16.77;100.00;100283.03;4974780;28;20258;-71
2022/08/02 04:27:52;;;;;;;4.20;3.80;;;;;;;16.84;100.00;100288.56;4989736;28;20227;-71
2022/08/02 04:30:19;;;;;;;3.97;3.57;;;;;;;16.90;100.00;100290.66;4963488;28;20221;-71
2022/08/02 04:32:44;;;;;;;5.77;3.70;;;;;;;16.91;100.00;100292.31;4973659;28;20187;-71
2022/08/02 04:35:11;;;;;;;3.90;3.60;;;;;;;16.98;100.00;100288.34;4975037;28;20544;-71
2022/08/02 04:37:37;;;;;;;4.57;4.17;;;;;;;17.20;100.00;100290.03;4970277;28;20236;-68
2022/08/02 04:40:07;;;;;;;5.33;3.73;;;;;;;17.39;100.00;100297.22;4968338;28;20185;-67
2022/08/02 04:42:32;;;;;;;4.07;3.70;;;;;;;17.52;100.00;100297.03;4957601;28;20278;-70
2022/08/02 04:44:58;;;;;;;6.17;4.43;;;;;;;17.70;100.00;100310.34;4974581;28;20639;-68
2022/08/02 04:47:23;;;;;;;4.73;4.33;;;;;;;17.74;100.00;100306.53;4971432;28;20235;-66
2022/08/02 04:49:48;;;;;;;4.33;4.03;;;;;;;17.88;100.00;100314.97;4965115;28;20581;-69
2022/08/02 04:52:14;;;;;;;4.03;3.67;;;;;;;18.00;100.00;100316.63;4981393;28;20711;-68
2022/08/02 04:54:39;;;;;;;4.33;3.93;;;;;;;18.18;100.00;100311.66;4973406;28;20280;-69
2022/08/02 04:59:48;;;;;;;3.97;3.57;;;;;;;18.35;100.00;100322.44;4974591;28;20223;-67
2022/08/02 05:02:14;;;;;;;6.23;3.27;;;;;;;18.46;100.00;100329.34;4980340;28;20246;-70
2022/08/02 05:04:39;;;;;;;5.03;3.30;;;;;;;18.62;100.00;100329.69;4974656;28;20726;-71
2022/08/02 05:07:04;;;;;;;3.63;3.33;;;;;;;18.69;100.00;100330.84;4974162;28;20184;-69
2022/08/02 05:09:30;;;;;;;6.90;3.67;;;;;;;18.84;100.00;100339.13;4973084;28;20204;-69
2022/08/02 05:11:55;;;;;;;3.43;3.13;;;;;;;18.75;100.00;100339.91;4978354;28;20623;-70
2022/08/02 05:14:20;;;;;;;4.00;3.60;;;;;;;18.86;100.00;100331.97;4975149;28;20601;-70
2022/08/02 05:16:45;;;;;;;5.30;3.47;;;;;;;18.78;100.00;100324.00;4973632;28;20742;-70
2022/08/02 05:19:11;;;;;;;5.23;3.63;;;;;;;18.71;100.00;100318.47;4973814;28;20539;-68
2022/08/02 05:21:36;;;;;;;4.47;2.97;;;;;;;18.94;100.00;100320.09;4975908;28;20226;-69
2022/08/02 05:24:02;;;;;;;3.70;3.37;;;;;;;18.94;100.00;100320.09;4977224;28;20184;-69
2022/08/02 05:26:27;;;;;;;7.83;3.47;;;;;;;19.16;100.00;100316.47;4973955;28;20176;-71
2022/08/02 05:28:52;;;;;;;5.40;3.47;;;;;;;19.33;100.00;100321.00;4973046;28;20215;-70
2022/08/02 05:31:17;;;;;;;3.87;3.17;;;;;;;19.43;100.00;100320.22;4974092;28;20613;-72
2022/08/02 05:33:43;;;;;;;3.90;3.13;;;;;;;19.57;99.81;100324.19;4971664;28;20185;-70
2022/08/02 05:36:08;;;;;;;3.73;3.00;;;;;;;19.69;98.89;100325.72;4972702;28;20184;-69
2022/08/02 05:38:33;;;;;;;4.13;3.33;;;;;;;19.80;97.30;100322.16;4988880;28;20666;-69
2022/08/02 05:40:59;;;;;;;3.57;3.20;;;;;;;19.73;97.55;100321.84;4957196;28;20234;-71
2022/08/02 05:43:24;;;;;;;3.07;2.67;;;;;;;19.69;96.36;100323.09;4981912;28;20619;-69
2022/08/02 05:45:51;;;;;;;3.07;2.73;;;;;;;19.77;96.19;100330.22;4967991;28;20188;-71
2022/08/02 05:48:16;;;;;;;3.27;2.97;;;;;;;19.91;95.26;100337.69;4963339;28;20590;-71
2022/08/02 05:50:47;;;;;;;3.53;3.23;;;;;;;19.84;95.50;100334.78;4968788;28;20238;-71
2022/08/02 05:53:38;;;;;;;3.93;3.07;;;;;;;19.91;93.98;100329.00;4983382;28;20251;-71
2022/08/02 05:56:23;;;;;;;3.43;2.93;;;;;;;20.17;92.62;100337.09;4971924;28;20556;-70
2022/08/02 05:58:59;;;;;;;5.20;3.10;;;;;;;20.23;90.80;100339.16;4960933;28;20295;-69
2022/08/02 06:01:35;;;;;;;3.20;3.00;;;;;;;20.40;90.69;100339.38;4973979;28;20231;-73
2022/08/02 06:04:06;;;;;;;4.40;2.90;;;;;;;20.85;87.39;100327.41;4976515;28;20176;-71
2022/08/02 06:06:32;;;;;;;3.60;2.83;;;;;;;21.11;86.64;100333.59;4988463;28;20192;-73
2022/08/02 06:09:02;;;;;;;2.97;2.63;;;;;;;21.57;82.37;100341.47;4988249;28;20602;-70
2022/08/02 06:11:44;;;;;;;2.83;2.53;;;;;;;21.54;80.32;100349.56;4974055;28;20314;-69
2022/08/02 06:14:11;;;;;;;4.70;3.00;;;;;;;21.19;82.73;100345.13;4964157;28;20180;-72
2022/08/02 06:16:38;;;;;;;4.07;3.10;;;;;;;21.26;81.37;100346.16;4973043;28;20184;-71
2022/08/02 06:19:04;;;;;;;3.37;3.07;;;;;;;21.38;81.40;100347.59;4973243;28;20372;-69
2022/08/02 06:21:30;;;;;;;4.57;3.37;;;;;;;21.62;81.43;100346.25;4973526;28;20293;-70
2022/08/02 06:23:57;;;;;;;3.80;3.20;;;;;;;21.88;77.84;100345.47;4977054;28;20647;-69
2022/08/02 06:26:24;;;;;;;3.80;2.97;;;;;;;21.93;78.09;100346.66;4972970;28;20223;-70
2022/08/02 06:28:51;;;;;;;3.27;2.97;;;;;;;22.14;78.25;100347.28;4972317;28;20212;-68
2022/08/02 06:31:17;;;;;;;4.30;2.93;;;;;;;22.35;75.57;100346.94;4964845;28;20745;-72
2022/08/02 06:33:43;;;;;;;2.87;2.67;;;;;;;22.51;73.40;100346.25;4988014;28;20239;-70
2022/08/02 06:36:23;;;;;;;5.03;3.00;;;;;;;22.30;73.61;100346.59;4973239;28;20180;-72
2022/08/02 06:39:03;;;;;;;2.63;2.43;;;;;;;22.58;73.18;100354.31;4971812;28;20646;-67
2022/08/02 06:41:38;;;;;;;4.80;2.77;;;;;;;22.88;70.53;100351.19;4952684;28;20234;-70
2022/08/02 06:44:03;;;;;;;6.07;2.97;;;;;;;22.65;70.68;100348.28;4979760;28;20177;-70
2022/08/02 06:46:29;;;;;;;3.63;2.53;;;;;;;23.05;69.54;100344.16;4978257;28;20191;-70
2022/08/02 06:48:55;;;;;;;3.83;2.60;;;;;;;23.32;67.54;100342.31;4977359;28;20603;-71
2022/08/02 06:51:21;;;;;;;4.10;2.93;;;;;;;24.86;59.49;100346.91;4997290;28;20242;-68
2022/08/02 06:53:47;;;;;;;5.30;2.47;;;;;;;26.63;51.65;100352.16;4980325;28;20176;-67
2022/08/02 06:56:12;;;;;;;3.00;2.08;;;;;;;28.74;44.89;100352.81;4986742;28;20175;-67
2022/08/02 06:58:38;;;;;;;4.90;2.25;;;;;;;29.83;40.32;100358.13;4986824;28;20267;-67
2022/08/02 07:01:06;;;;;;;5.05;2.38;;;;;;;27.43;46.90;100359.41;4950049;28;20263;-67
2022/08/02 07:03:32;;;;;;;4.43;2.28;;;;;;;29.85;40.82;100350.81;4963873;28;20180;-75
2022/08/02 07:05:58;;;;;;;3.92;2.20;;;;;;;30.13;39.83;100347.94;4992754;28;20187;-71
2022/08/02 07:08:24;;;;;;;5.47;2.10;;;;;;;31.18;36.29;100359.41;4977699;28;20316;-68
2022/08/02 07:10:49;;;;;;;3.20;1.85;;;;;;;31.27;35.98;100360.81;4962917;28;20224;-67
2022/08/02 07:13:14;;;;;;;3.95;2.10;;;;;;;31.81;34.85;100361.22;4976002;28;20189;-68
2022/08/02 07:15:41;;;;;;;4.43;2.10;;;;;;;31.96;33.82;100360.09;4973652;28;20285;-69
2022/08/02 07:18:06;;;;;;;3.22;2.20;;;;;;;32.39;33.31;100361.91;4974544;28;20242;-67
2022/08/02 07:20:31;;;;;;;2.95;1.92;;;;;;;32.08;33.18;100362.81;4961659;28;20227;-68
2022/08/02 07:22:57;;;;;;;2.00;1.80;;;;;;;32.88;31.75;100361.94;4976004;28;20188;-69
2022/08/02 07:25:23;;;;;;;3.08;1.75;;;;;;;33.52;31.13;100358.00;4978763;28;20706;-69
2022/08/02 07:27:48;;;;;;;4.82;1.80;;;;;;;34.00;29.90;100350.81;4986767;28;20749;-69
2022/08/02 07:30:14;;;;;;;3.28;1.70;;;;;;;33.72;29.19;100350.47;4940222;28;20254;-69
2022/08/02 07:32:39;;;;;;;3.72;1.48;;;;;;;33.52;29.03;100353.47;4998994;28;20647;-69
2022/08/02 07:35:05;;;;;;;2.20;1.30;;;;;;;33.79;28.72;100348.50;4982741;28;20233;-69
2022/08/02 07:37:32;;;;;;;3.72;1.63;;;;;;;33.68;29.20;100343.97;4974232;28;20250;-69
2022/08/02 07:39:57;;;;;;;10.50;1.80;;;;;;;33.69;28.57;100339.44;4993838;28;20181;-69
2022/08/02 07:42:23;;;;;;;3.88;1.70;;;;;;;35.46;26.70;100345.34;4964234;28;20228;-69
2022/08/02 07:44:49;;;;;;;4.03;1.50;;;;;;;35.92;25.55;100347.91;4971244;28;20271;-68
2022/08/02 07:47:14;;;;;;;2.17;1.90;;;;;;;36.43;25.04;100345.91;4980893;28;20216;-68
2022/08/02 07:49:39;;;;;;;3.03;1.70;;;;;;;36.36;24.78;100353.31;4975496;28;20314;-69
2022/08/02 07:52:05;;;;;;;5.80;1.73;;;;;;;35.02;25.98;100353.97;4981094;28;20600;-69
2022/08/02 07:54:30;;;;;;;2.00;1.80;;;;;;;32.95;28.73;100343.22;4990411;28;20192;-68
2022/08/02 07:56:56;;;;;;;3.67;1.60;;;;;;;32.65;29.46;100344.00;4974576;28;20172;-68
2022/08/02 07:59:21;;;;;;;1.85;1.38;;;;;;;34.27;26.87;100346.63;4974366;28;20212;-68
2022/08/02 08:01:48;;;;;;;5.45;1.40;;;;;;;32.94;28.47;100336.28;4978209;28;20234;-68
2022/08/02 08:04:16;;;;;;;4.10;1.45;;;;;;;34.25;26.17;100345.25;4977316;28;20207;-68
2022/08/02 08:06:42;;;;;;;2.05;1.35;;;;;;;34.85;24.10;100349.34;4974876;28;20198;-68
2022/08/02 08:09:09;;;;;;;3.03;1.17;;;;;;;34.79;24.62;100341.50;4974985;28;20218;-68
2022/08/02 08:11:34;;;;;;;2.00;1.50;;;;;;;35.38;23.90;100338.56;4966907;28;20271;-69
2022/08/02 08:14:00;;;;;;;1.95;1.42;;;;;;;35.82;24.83;100341.31;4985406;28;20196;-69
2022/08/02 08:16:27;;;;;;;2.28;1.50;;;;;;;35.23;24.17;100339.09;4970431;28;20718;-68
2022/08/02 08:18:54;;;;;;;7.38;1.60;;;;;;;33.71;26.93;100332.03;4969149;28;20269;-68
2022/08/02 08:21:20;;;;;;;1.88;1.05;;;;;;;34.38;25.84;100336.19;4970969;28;20227;-69
2022/08/02 08:23:45;;;;;;;3.10;1.50;;;;;;;36.21;23.85;100340.53;4980091;28;21001;-68
2022/08/02 08:26:10;;;;;;;1.58;1.27;;;;;;;37.34;22.39;100340.94;4973777;28;20218;-69
2022/08/02 08:28:36;;;;;;;1.20;1.10;;;;;;;37.04;22.28;100355.69;4973685;28;20207;-69
2022/08/02 08:31:01;;;;;;;2.53;1.50;;;;;;;36.81;23.06;100352.19;4967804;28;20223;-69
2022/08/02 08:33:26;;;;;;;2.92;1.60;;;;;;;36.07;23.20;100348.09;4989985;28;20180;-69
2022/08/02 08:35:52;;;;;;;2.70;1.35;;;;;;;36.32;23.11;100354.84;4973505;28;20231;-69
2022/08/02 08:38:18;;;;;;;2.17;1.52;;;;;;;33.52;26.69;100358.81;4969689;28;20200;-69
2022/08/02 08:40:43;;;;;;;5.07;3.00;;;;;;;34.89;25.04;100352.38;4954160;28;20353;-68
2022/08/02 08:43:12;;;;;;;3.70;1.45;;;;;;;32.93;27.59;100354.13;4971972;28;20180;-69
2022/08/02 08:45:39;;;;;;;3.50;1.58;;;;;;;32.86;27.29;100348.06;4974889;28;20180;-68
2022/08/02 08:48:14;;;;;;;7.50;1.77;;;;;;;33.26;26.57;100338.69;4974547;28;20203;-69
2022/08/02 08:50:56;;;;;;;3.35;1.50;;;;;;;34.83;24.46;100334.59;4967086;28;20670;-69
2022/08/02 08:53:25;;;;;;;4.72;1.60;;;;;;;35.48;23.09;100332.56;4989590;28;20561;-69
2022/08/02 08:55:52;;;;;;;3.65;1.30;;;;;;;35.27;23.57;100328.72;4973661;28;20191;-69
2022/08/02 08:58:18;;;;;;;3.65;1.23;;;;;;;34.67;24.35;100331.66;4973079;28;20191;-68
2022/08/02 09:00:45;;;;;;;5.30;1.40;;;;;;;35.15;24.14;100334.94;4969117;28;20231;-68
2022/08/02 09:03:10;;;;;;;3.33;1.45;;;;;;;37.33;22.53;100354.56;4988943;28;20177;-69
2022/08/02 09:05:37;;;;;;;3.72;1.33;;;;;;;37.73;21.97;100351.38;4980126;28;20187;-69
2022/08/02 09:08:03;;;;;;;4.53;1.60;;;;;;;38.68;19.84;100343.50;4993462;28;20230;-69
2022/08/02 09:10:32;;;;;;;2.55;1.30;;;;;;;38.42;19.88;100341.53;4976710;28;20232;-69
2022/08/02 09:13:20;;;;;;;7.57;1.50;;;;;;;35.13;23.25;100334.38;4977742;28;20655;-69
2022/08/02 09:16:04;;;;;;;6.55;1.52;;;;;;;37.09;21.61;100339.63;4976761;28;20251;-70
2022/08/02 09:18:33;;;;;;;2.55;1.30;;;;;;;38.23;20.94;100343.03;4988941;28;20239;-69
2022/08/02 09:21:01;;;;;;;5.68;1.20;;;;;;;39.51;19.97;100349.72;4971510;28;20271;-69
2022/08/02 09:23:34;;;;;;;5.40;1.70;;;;;;;39.18;18.41;100344.59;4988777;28;20188;-69
2022/08/02 09:26:02;;;;;;;2.55;1.67;;;;;;;39.73;17.81;100348.63;4974705;28;20184;-70
2022/08/02 09:28:30;;;;;;;2.40;1.15;;;;;;;38.36;19.19;100342.59;4975979;28;20219;-69
2022/08/02 09:31:03;;;;;;;5.80;1.58;;;;;;;38.33;20.25;100334.25;4969933;28;20246;-69
2022/08/02 09:33:29;;;;;;;5.45;1.45;;;;;;;38.74;18.81;100337.84;4981604;28;20243;-69
2022/08/02 09:36:05;;;;;;;3.47;1.40;;;;;;;37.69;19.66;100336.84;4967402;28;20223;-70
2022/08/02 09:38:32;;;;;;;5.05;1.33;;;;;;;35.01;23.05;100328.28;4953421;28;20211;-69
2022/08/02 09:40:58;;;;;;;2.25;1.23;;;;;;;37.49;20.40;100323.31;4952895;28;20291;-69
2022/08/02 09:43:38;;;;;;;1.88;1.20;;;;;;;37.48;20.86;100341.28;4988581;28;20186;-69
2022/08/02 09:46:19;;;;;;;1.02;0.85;;;;;;;38.65;19.22;100328.66;4971799;28;20279;-70
2022/08/02 09:48:50;;;;;;;2.83;1.23;;;;;;;38.66;18.55;100332.19;4988473;28;20382;-69
2022/08/02 09:51:27;;;;;;;1.45;1.13;;;;;;;39.52;18.12;100333.31;4966240;28;20362;-69
2022/08/02 09:53:55;;;;;;;2.05;0.90;;;;;;;40.26;18.42;100329.34;4972407;28;20184;-69
2022/08/02 09:56:22;;;;;;;3.92;1.00;;;;;;;40.95;16.82;100329.44;4973325;28;20674;-69
2022/08/02 09:58:48;;;;;;;3.80;1.23;;;;;;;41.37;16.85;100329.91;4988433;28;20186;-69
2022/08/02 10:01:14;;;;;;;1.80;1.15;;;;;;;41.31;17.23;100329.16;4981104;28;20337;-69
2022/08/02 10:03:54;;;;;;;2.38;1.15;;;;;;;41.44;16.87;100327.69;4988000;28;20655;-69
2022/08/02 10:06:20;;;;;;;3.97;0.98;;;;;;;38.80;18.52;100316.38;4971989;28;20215;-70
2022/08/02 10:08:46;;;;;;;2.33;1.10;;;;;;;36.09;21.60;100308.53;4987994;28;20683;-69
2022/08/02 10:11:11;;;;;;;6.78;1.20;;;;;;;37.97;20.91;100318.78;4981406;28;20235;-69
2022/08/02 10:13:37;;;;;;;2.63;1.08;;;;;;;36.64;21.22;100305.94;4988076;28;20617;-68
2022/08/02 10:16:05;;;;;;;1.70;1.13;;;;;;;38.67;19.82;100302.34;4988139;28;20598;-68
2022/08/02 10:18:30;;;;;;;2.22;1.23;;;;;;;39.50;19.04;100316.63;4988540;28;20247;-69
2022/08/02 10:21:00;;;;;;;2.33;1.10;;;;;;;35.58;22.26;100313.97;4965724;28;20709;-68
2022/08/02 10:23:27;;;;;;;3.70;1.60;;;;;;;33.74;24.16;100308.38;4972011;28;20180;-68
2022/08/02 10:25:54;;;;;;;5.70;1.27;;;;;;;31.66;27.42;100291.63;4966777;28;20239;-67
2022/08/02 10:28:29;;;;;;;2.42;1.30;;;;;;;31.14;27.96;100286.50;4988029;28;20192;-67
2022/08/02 10:30:55;;;;;;;1.15;1.00;;;;;;;30.97;29.24;100294.13;4969071;28;20701;-67
2022/08/02 10:33:25;;;;;;;3.90;1.73;;;;;;;30.14;29.74;100287.75;4978253;28;20206;-68
2022/08/02 10:35:53;;;;;;;2.28;1.40;;;;;;;29.55;31.08;100285.78;4973145;28;20194;-67
2022/08/02 10:38:19;;;;;;;5.03;1.45;;;;;;;30.93;29.52;100280.47;4977702;28;20173;-68
2022/08/02 10:40:50;;;;;;;1.90;1.27;;;;;;;32.55;26.62;100279.81;4966128;28;20294;-69
2022/08/02 10:43:41;;;;;;;2.45;1.60;;;;;;;31.14;28.72;100278.53;4977221;28;20176;-69
2022/08/02 10:46:23;;;;;;;1.63;1.20;;;;;;;30.52;29.80;100266.59;4966926;28;20631;-69
2022/08/02 10:49:13;;;;;;;3.70;1.40;;;;;;;29.37;31.26;100267.00;4960206;28;20283;-68
2022/08/02 10:51:50;;;;;;;1.88;1.33;;;;;;;29.93;30.97;100266.59;4973903;28;20211;-68
2022/08/02 10:54:22;;;;;;;2.55;1.40;;;;;;;30.54;30.94;100263.72;4971156;28;20314;-67
2022/08/02 10:56:49;;;;;;;2.30;1.20;;;;;;;31.29;28.81;100257.75;4969797;28;20180;-67
2022/08/02 10:59:36;;;;;;;3.78;1.20;;;;;;;30.95;29.67;100270.44;4980173;28;20234;-67
2022/08/02 11:02:04;;;;;;;2.28;1.25;;;;;;;30.35;29.14;100260.94;4962661;28;20250;-66
2022/08/02 11:04:40;;;;;;;2.67;1.30;;;;;;;29.90;31.30;100264.34;4981981;28;20231;-78
2022/08/02 11:07:15;;;;;;;2.72;1.17;;;;;;;30.09;30.21;100267.97;4968749;28;20263;-78
2022/08/02 11:09:45;;;;;;;1.83;1.10;;;;;;;30.14;29.79;100266.53;4973027;28;20216;-73
2022/08/02 11:12:16;;;;;;;1.67;1.10;;;;;;;30.29;28.55;100256.47;4954798;28;20228;-84
2022/08/02 11:14:45;;;;;;;2.25;1.02;;;;;;;30.58;28.88;100260.44;4984661;28;20179;-72
2022/08/02 11:17:18;;;;;;;1.30;1.00;;;;;;;30.46;27.65;100254.16;4958132;28;20236;-68
2022/08/02 11:20:11;;;;;;;1.83;1.27;;;;;;;30.00;27.72;100252.50;4964130;28;20339;-79
2022/08/02 11:22:38;;;;;;;2.67;1.02;;;;;;;29.92;27.84;100242.94;4954574;28;20224;-81
2022/08/02 11:25:27;;;;;;;4.22;1.30;;;;;;;29.41;28.33;100242.56;4961300;28;20189;-78
2022/08/02 11:27:59;;;;;;;1.27;0.80;;;;;;;29.15;28.46;100238.88;4969150;28;20219;-76
2022/08/02 11:30:25;;;;;;;1.00;0.98;;;;;;;29.65;30.14;100236.84;4940845;28;20348;-73
2022/08/02 11:32:56;;;;;;;3.10;0.90;;;;;;;29.60;30.37;100237.47;4968630;28;20224;-74